Time;durP1;ratioP1;P1;durP2;ratioP2;P2;SDS_P1;SDS_P2;PMS_P1;PMS_P2;Temp;Humidity;BMP_temperature;BMP_pressure;BME280_temperature;BME280_humidity;BME280_pressure;Samples;Min_cycle;Max_cycle;Signal;HPM_P1;HPM_P2
2024/03/16 00:20:40;;;;;;;91.10;39.60;;;;;;;-147.86;100.00;54115.23;102945;1290;601043;-49
2024/03/16 00:23:08;;;;;;;110.60;42.60;;;;;;;-147.86;100.00;48962.66;105158;1264;60735;-48
2024/03/16 00:25:35;;;;;;;94.90;38.60;;;;;;;-147.86;100.00;48997.57;105142;1263;59708;-47
2024/03/16 00:28:04;;;;;;;103.80;40.70;;;;;;;-147.86;100.00;49043.05;105132;1269;72079;-47
2024/03/16 00:30:33;;;;;;;106.40;39.50;;;;;;;-147.86;100.00;49083.06;104949;1264;64011;-48
2024/03/16 00:33:01;;;;;;;93.10;38.90;;;;;;;-147.86;100.00;49136.39;105152;1267;71395;-48
2024/03/16 00:35:29;;;;;;;97.70;39.90;;;;;;;-147.86;100.00;49162.28;104952;1267;407454;-47
2024/03/16 00:37:57;;;;;;;96.30;39.20;;;;;;;-147.86;100.00;49184.24;105286;1261;61233;-48
2024/03/16 00:40:24;;;;;;;88.60;40.80;;;;;;;-147.86;100.00;49218.36;105207;1261;71810;-46
2024/03/16 01:20:16;;;;;;;92.00;39.60;;;;;;;-147.86;100.00;54709.59;102828;1289;601082;-48
2024/03/16 01:24:44;;;;;;;97.30;38.80;;;;;;;-147.86;100.00;55379.16;102732;1289;600208;-48
2024/03/16 01:27:12;;;;;;;88.10;38.10;;;;;;;-147.86;100.00;45383.68;105016;1269;60372;-47
2024/03/16 01:29:40;;;;;;;89.20;38.30;;;;;;;-147.86;100.00;46650.07;104849;1270;60039;-48
2024/03/16 01:32:08;;;;;;;88.00;39.90;;;;;;;-147.86;100.00;47090.61;105050;1268;72092;-48
2024/03/16 01:34:36;;;;;;;103.10;44.80;;;;;;;-147.86;100.00;47296.39;105194;1265;63968;-47
2024/03/16 01:37:04;;;;;;;101.80;44.30;;;;;;;-147.86;100.00;47437.90;105219;1263;71661;-47
2024/03/16 01:39:33;;;;;;;98.50;45.10;;;;;;;-147.86;100.00;47561.77;105071;1259;258581;-49
2024/03/16 01:42:01;;;;;;;96.50;41.80;;;;;;;-147.86;100.00;47689.57;105681;1259;59583;-47
2024/03/16 01:44:29;;;;;;;104.80;44.80;;;;;;;-147.86;100.00;47805.61;105633;1255;70982;-47
2024/03/16 02:19:49;;;;;;;86.70;37.50;;;;;;;-147.86;100.00;53797.54;102722;1292;600510;-47
2024/03/16 02:22:19;;;;;;;88.90;37.30;;;;;;;-147.86;100.00;48211.78;105054;1269;61606;-48
2024/03/16 02:24:46;;;;;;;100.90;40.00;;;;;;;-147.86;100.00;48256.47;104860;1271;59812;-47
2024/03/16 02:27:14;;;;;;;83.80;36.60;;;;;;;-147.86;100.00;48292.15;105050;1264;71808;-48
2024/03/16 02:29:42;;;;;;;87.40;36.70;;;;;;;-147.86;100.00;48296.85;104826;1267;63934;-46
2024/03/16 02:32:10;;;;;;;84.10;37.20;;;;;;;-147.86;100.00;48325.87;105082;1267;71578;-46
2024/03/16 02:34:38;;;;;;;82.70;36.80;;;;;;;-147.86;100.00;48336.06;105071;1265;264346;-48
2024/03/16 02:37:07;;;;;;;95.50;38.40;;;;;;;-147.86;100.00;48386.64;105144;1266;59525;-47
2024/03/16 02:39:35;;;;;;;91.40;37.40;;;;;;;-147.86;100.00;48385.86;105198;1266;73018;-49
2024/03/16 02:42:04;;;;;;;90.00;38.10;;;;;;;-147.86;100.00;48418.01;105244;1269;63116;-50
2024/03/16 02:44:31;;;;;;;87.70;37.90;;;;;;;-147.86;100.00;48429.77;105190;1265;71965;-49
2024/03/16 02:46:59;;;;;;;76.80;36.50;;;;;;;-147.86;100.00;48426.64;105204;1267;60541;-49
2024/03/16 02:49:27;;;;;;;96.90;38.30;;;;;;;-147.86;100.00;48408.21;105211;1264;60541;-49
2024/03/16 02:51:55;;;;;;;86.90;39.60;;;;;;;-147.86;100.00;48380.76;105192;1262;72560;-49
2024/03/16 02:54:23;;;;;;;83.70;36.40;;;;;;;-147.86;100.00;48413.30;108828;1263;64049;-52
2024/03/16 02:56:51;;;;;;;102.50;39.00;;;;;;;-147.86;100.00;48465.46;108844;1263;70598;-48
2024/03/16 02:59:20;;;;;;;83.90;37.70;;;;;;;-147.86;100.00;48528.58;108871;1263;60373;-51
2024/03/16 03:01:47;;;;;;;88.50;35.70;;;;;;;-147.86;100.00;48598.77;108864;1265;60092;-50
2024/03/16 03:04:15;;;;;;;86.20;37.60;;;;;;;-147.86;100.00;48664.25;108908;1262;73782;-48
2024/03/16 03:06:42;;;;;;;80.20;36.20;;;;;;;-147.86;100.00;48721.51;108835;1262;64369;-50
2024/03/16 03:09:10;;;;;;;70.30;33.50;;;;;;;-147.86;100.00;48810.12;108863;1263;72688;-47
2024/03/16 03:11:38;;;;;;;81.20;35.10;;;;;;;-147.86;100.00;48874.82;108834;1262;59027;-48
2024/03/16 03:14:08;;;;;;;83.90;37.40;;;;;;;-147.86;100.00;48928.94;108902;1263;60079;-49
2024/03/16 03:19:58;;;;;;;81.20;35.40;;;;;;;-147.86;100.00;54462.89;102920;1289;600414;-47
2024/03/16 03:22:26;;;;;;;92.20;38.50;;;;;;;-147.86;100.00;49065.02;105150;1266;59676;-48
2024/03/16 03:24:54;;;;;;;78.00;34.50;;;;;;;-147.86;100.00;48993.65;105167;1264;59538;-51
2024/03/16 03:27:23;;;;;;;77.80;34.60;;;;;;;-147.86;100.00;48966.59;105123;1264;72972;-48
2024/03/16 03:29:50;;;;;;;96.20;40.50;;;;;;;-147.86;100.00;48968.15;105209;1264;64063;-49
2024/03/16 03:32:18;;;;;;;89.70;36.90;;;;;;;-147.86;100.00;48945.80;105123;1268;70574;-47
2024/03/16 03:34:46;;;;;;;94.30;39.00;;;;;;;-147.86;100.00;48934.82;105027;1264;332413;-49
2024/03/16 03:37:14;;;;;;;83.10;35.90;;;;;;;-147.86;100.00;48936.78;105282;1266;59532;-49
2024/03/16 03:39:42;;;;;;;83.00;36.10;;;;;;;-147.86;100.00;48977.57;105198;1266;72988;-47
2024/03/16 03:42:11;;;;;;;86.90;37.50;;;;;;;-147.86;100.00;49019.53;105234;1261;63921;-49
2024/03/16 03:44:49;;;;;;;85.60;38.50;;;;;;;-147.86;100.00;49058.74;105210;1264;71423;-49
2024/03/16 03:47:18;;;;;;;88.30;37.40;;;;;;;-147.86;100.00;49036.00;105292;1262;60478;-50
2024/03/16 03:49:50;;;;;;;96.40;39.80;;;;;;;-147.86;100.00;49173.65;105264;1261;60522;-47
2024/03/16 03:52:18;;;;;;;91.40;37.50;;;;;;;-147.86;100.00;49276.40;105243;1261;72572;-47
2024/03/16 03:54:46;;;;;;;92.60;38.40;;;;;;;-147.86;100.00;49401.11;105204;1261;64384;-47
2024/03/16 03:57:15;;;;;;;92.30;37.60;;;;;;;-147.86;100.00;49517.99;105203;1266;71422;-52
2024/03/16 03:59:42;;;;;;;97.30;38.70;;;;;;;-147.86;100.00;49619.57;105198;1266;61737;-49
2024/03/16 04:02:10;;;;;;;96.50;37.90;;;;;;;-147.86;100.00;49705.86;105220;1266;60417;-49
2024/03/16 04:04:40;;;;;;;95.20;38.30;;;;;;;-147.86;100.00;49725.86;105176;1261;71818;-50
2024/03/16 04:07:08;;;;;;;93.60;37.00;;;;;;;-147.86;100.00;49804.70;105274;1260;64134;-49
2024/03/16 04:09:36;;;;;;;97.70;38.10;;;;;;;-147.86;100.00;49904.33;105257;1266;72574;-49
2024/03/16 04:12:05;;;;;;;72.50;35.30;;;;;;;-147.86;100.00;49984.35;105261;1262;60557;-49
2024/03/16 04:14:33;;;;;;;76.50;34.50;;;;;;;-147.86;100.00;50036.52;105213;1261;60374;-47
2024/03/16 04:17:01;;;;;;;83.10;35.30;;;;;;;-147.86;100.00;50143.60;105206;1264;72642;-51
2024/03/16 04:19:28;;;;;;;83.20;35.60;;;;;;;-147.86;100.00;50210.29;105151;1264;64349;-47
2024/03/16 04:21:56;;;;;;;70.50;33.50;;;;;;;-147.86;100.00;50294.23;105595;1257;71425;-49
2024/03/16 04:24:23;;;;;;;78.80;33.10;;;;;;;-147.86;100.00;50380.93;105615;1257;60560;-50
2024/03/16 04:26:51;;;;;;;75.80;33.50;;;;;;;-147.86;100.00;50541.38;105632;1260;60795;-49
2024/03/16 04:29:18;;;;;;;78.20;34.30;;;;;;;-147.86;100.00;50752.45;105584;1261;73972;-49
2024/03/16 04:31:46;;;;;;;71.80;33.30;;;;;;;-147.86;100.00;50992.16;105583;1256;63923;-50
2024/03/16 04:34:14;;;;;;;70.20;33.50;;;;;;;-147.86;100.00;51196.19;105609;1257;70982;-48
2024/03/16 04:36:41;;;;;;;74.80;34.00;;;;;;;-147.86;100.00;51371.58;105559;1260;60536;-48
2024/03/16 04:39:09;;;;;;;72.80;34.20;;;;;;;-147.86;100.00;51516.38;105651;1261;60496;-51
2024/03/16 04:41:37;;;;;;;78.80;34.40;;;;;;;-147.86;100.00;51664.71;105565;1260;73816;-47
2024/03/16 04:44:04;;;;;;;67.80;32.70;;;;;;;-147.86;100.00;51793.82;105577;1254;64484;-47
2024/03/16 04:46:33;;;;;;;73.90;33.70;;;;;;;-147.86;100.00;51898.59;105587;1257;71492;-48
2024/03/16 04:49:01;;;;;;;66.90;33.80;;;;;;;-147.86;100.00;51953.14;105629;1257;60536;-48
2024/03/16 04:51:28;;;;;;;69.20;32.80;;;;;;;-147.86;100.00;52043.80;105609;1257;62388;-46
2024/03/16 04:53:56;;;;;;;68.60;32.00;;;;;;;-147.86;100.00;52128.57;105557;1255;73810;-49
2024/03/16 04:56:24;;;;;;;59.20;30.10;;;;;;;-147.86;100.00;52185.88;105600;1261;64035;-50
2024/03/16 04:58:51;;;;;;;74.90;31.60;;;;;;;-147.86;100.00;52240.43;105632;1258;72671;-46
2024/03/16 05:01:19;;;;;;;73.30;31.30;;;;;;;-147.86;100.00;52280.46;105604;1257;60423;-46
2024/03/16 05:03:47;;;;;;;70.10;32.00;;;;;;;-147.86;100.00;52319.31;105617;1260;60409;-48
2024/03/16 05:06:14;;;;;;;67.40;30.50;;;;;;;-147.86;100.00;52370.73;105643;1255;71557;-47
2024/03/16 05:08:46;;;;;;;70.40;30.90;;;;;;;-147.86;100.00;52374.65;105566;1257;64337;-47
2024/03/16 05:11:13;;;;;;;58.50;30.40;;;;;;;-147.86;100.00;52430.39;105555;1258;71658;-46
2024/03/16 05:13:41;;;;;;;69.90;32.40;;;;;;;-147.86;100.00;52409.59;105644;1257;60462;-47
2024/03/16 05:16:09;;;;;;;69.00;32.40;;;;;;;-147.86;100.00;52404.48;105653;1260;60348;-51
2024/03/16 05:18:37;;;;;;;67.60;33.30;;;;;;;-147.86;100.00;52392.31;105539;1256;72595;-48
2024/03/16 05:21:05;;;;;;;67.00;32.90;;;;;;;-147.86;100.00;52407.23;105579;1257;63950;-49
2024/03/16 05:23:32;;;;;;;75.00;32.30;;;;;;;-147.86;100.00;52369.16;105572;1258;70922;-49
2024/03/16 05:26:00;;;;;;;68.10;31.40;;;;;;;-147.86;100.00;52357.77;105595;1258;60626;-45
2024/03/16 05:28:27;;;;;;;71.40;28.90;;;;;;;-147.86;100.00;52313.03;105606;1255;60432;-47
2024/03/16 05:30:55;;;;;;;73.10;29.20;;;;;;;-147.86;100.00;52252.20;105587;1254;72583;-46
2024/03/16 05:33:23;;;;;;;65.70;29.50;;;;;;;-147.86;100.00;52174.10;105644;1261;65180;-49
2024/03/16 05:35:50;;;;;;;68.90;29.50;;;;;;;-147.86;100.00;52107.77;105654;1260;71467;-47
2024/03/16 05:38:19;;;;;;;58.50;28.90;;;;;;;-147.86;100.00;52051.26;105572;1257;60619;-49
2024/03/16 05:40:47;;;;;;;73.40;29.80;;;;;;;-147.86;100.00;51962.95;105630;1254;60597;-49
2024/03/16 05:43:15;;;;;;;69.50;29.30;;;;;;;-147.86;100.00;51913.90;105607;1254;72555;-49
2024/03/16 05:45:43;;;;;;;55.20;27.90;;;;;;;-147.86;100.00;51850.32;105606;1258;64025;-49
2024/03/16 05:48:11;;;;;;;58.50;29.30;;;;;;;-147.86;100.00;51794.99;105633;1257;71410;-50
2024/03/16 05:50:38;;;;;;;64.80;30.40;;;;;;;-147.86;100.00;51691.78;105588;1261;60539;-49
2024/03/16 05:53:06;;;;;;;63.50;28.90;;;;;;;-147.86;100.00;51602.31;105603;1254;60328;-51
2024/03/16 05:55:34;;;;;;;65.50;29.80;;;;;;;-147.86;100.00;51532.07;105690;1263;73773;-49
2024/03/16 05:58:01;;;;;;;64.10;29.60;;;;;;;-147.86;100.00;51463.40;105575;1258;63888;-47
2024/03/16 06:00:29;;;;;;;65.30;30.00;;;;;;;-147.86;100.00;51405.33;105576;1258;71350;-51
2024/03/16 06:02:57;;;;;;;58.50;31.40;;;;;;;-147.86;100.00;51339.01;105581;1260;60601;-48
2024/03/16 06:05:24;;;;;;;70.50;30.30;;;;;;;-147.86;100.00;51265.25;105590;1257;60348;-48
2024/03/16 06:07:52;;;;;;;66.80;28.50;;;;;;;-147.86;100.00;51210.31;105568;1261;73783;-48
2024/03/16 06:10:19;;;;;;;60.80;29.70;;;;;;;-147.86;100.00;51119.68;105585;1258;65368;-48
2024/03/16 06:12:49;;;;;;;63.40;30.10;;;;;;;-147.86;100.00;51029.83;105656;1257;71469;-50
2024/03/16 06:15:17;;;;;;;72.10;30.20;;;;;;;-147.86;100.00;50932.13;105848;1256;61732;-48
2024/03/16 06:20:48;;;;;;;65.60;28.40;;;;;;;-147.86;100.00;55903.02;102744;1294;600861;-48
2024/03/16 06:23:16;;;;;;;66.00;29.40;;;;;;;-147.86;100.00;50797.56;104898;1266;59629;-46
2024/03/16 06:25:48;;;;;;;70.40;29.10;;;;;;;-147.86;100.00;50685.75;104884;1270;59632;-47
2024/03/16 06:28:17;;;;;;;72.30;27.90;;;;;;;-147.86;100.00;50491.16;104827;1264;71848;-50
2024/03/16 06:30:48;;;;;;;64.60;28.10;;;;;;;-147.86;100.00;50384.85;104860;1270;63244;-49
2024/03/16 06:33:27;;;;;;;74.70;28.50;;;;;;;-147.86;100.00;50207.15;104555;1266;329555;-50
2024/03/16 06:35:55;;;;;;;80.10;30.40;;;;;;;-147.86;100.00;50043.97;105159;1268;60030;-49
2024/03/16 06:38:22;;;;;;;71.00;28.30;;;;;;;-147.86;100.00;49907.07;105118;1263;59932;-50
2024/03/16 06:40:50;;;;;;;74.20;28.60;;;;;;;-147.86;100.00;49753.71;105129;1263;71867;-47
2024/03/16 06:43:18;;;;;;;79.60;29.50;;;;;;;-147.86;100.00;49653.69;105145;1262;65293;-47
2024/03/16 06:45:45;;;;;;;73.70;30.00;;;;;;;-147.86;100.00;49522.30;105113;1266;71345;-51
2024/03/16 07:20:26;;;;;;;67.50;27.90;;;;;;;-147.86;100.00;53104.46;102906;1290;600631;-49
2024/03/16 07:22:54;;;;;;;61.60;28.70;;;;;;;-147.86;100.00;47500.62;105067;1267;60707;-49
2024/03/16 07:25:22;;;;;;;65.90;29.20;;;;;;;-147.86;100.00;47379.49;105114;1269;59695;-50
2024/03/16 07:27:49;;;;;;;65.80;28.50;;;;;;;-147.86;100.00;47305.41;105162;1264;72962;-47
2024/03/16 07:30:18;;;;;;;68.10;28.80;;;;;;;-147.86;100.00;47237.20;105103;1269;63145;-48
2024/03/16 07:32:47;;;;;;;76.40;29.50;;;;;;;-147.86;100.00;47174.49;105182;1264;74888;-46
2024/03/16 07:35:16;;;;;;;65.10;29.40;;;;;;;-147.86;100.00;47076.88;104909;1265;417820;-48
2024/03/16 07:37:44;;;;;;;66.80;28.60;;;;;;;-147.86;100.00;46949.50;105227;1264;59959;-48
2024/03/16 07:40:15;;;;;;;69.90;29.90;;;;;;;-147.86;100.00;46800.95;105199;1266;75079;-48
2024/03/16 07:42:43;;;;;;;81.70;31.30;;;;;;;-147.86;100.00;46680.63;105234;1266;63907;-48
2024/03/16 07:45:12;;;;;;;67.10;29.60;;;;;;;-147.86;100.00;46541.89;105152;1264;72594;-48
2024/03/16 07:47:40;;;;;;;67.90;29.50;;;;;;;-147.86;100.00;46376.12;105221;1266;60578;-47
2024/03/16 07:50:09;;;;;;;71.60;30.60;;;;;;;-147.86;100.00;46215.84;105223;1267;61089;-49
2024/03/16 07:52:36;;;;;;;77.40;29.00;;;;;;;-147.86;100.00;46037.15;105204;1264;72505;-49
2024/03/16 07:55:06;;;;;;;69.80;29.00;;;;;;;-147.86;100.00;45917.63;105222;1266;67563;-47
2024/03/16 07:57:34;;;;;;;82.70;30.40;;;;;;;-147.86;100.00;45858.47;105254;1266;72653;-46
2024/03/16 08:00:04;;;;;;;69.00;29.20;;;;;;;-147.86;100.00;45807.52;105237;1263;62777;-48
2024/03/16 08:02:38;;;;;;;71.20;29.40;;;;;;;-147.86;100.00;45500.78;105182;1264;61095;-45
2024/03/16 08:05:10;;;;;;;83.30;29.80;;;;;;;-147.86;100.00;45884.72;105280;1262;73813;-47
2024/03/16 08:07:39;;;;;;;67.90;28.70;;;;;;;-147.86;100.00;45741.70;105257;1266;66696;-49
2024/03/16 08:10:09;;;;;;;66.90;28.70;;;;;;;-147.86;100.00;45614.75;105153;1264;74911;-48
2024/03/16 08:12:37;;;;;;;74.40;30.10;;;;;;;-147.86;100.00;45453.33;105248;1264;62681;-47
2024/03/16 08:15:06;;;;;;;68.50;29.40;;;;;;;-147.86;100.00;45286.82;105244;1262;62466;-47
2024/03/16 08:17:34;;;;;;;63.90;28.20;;;;;;;-147.86;100.00;45144.60;105219;1263;75859;-49
2024/03/16 08:20:02;;;;;;;78.60;29.90;;;;;;;-147.86;100.00;44929.53;105083;1269;66483;-46
2024/03/16 08:22:30;;;;;;;64.40;28.30;;;;;;;-147.86;100.00;44743.06;105192;1263;74374;-50
2024/03/16 08:24:58;;;;;;;80.80;31.00;;;;;;;-147.86;100.00;44341.95;105121;1268;63780;-46
2024/03/16 08:27:26;;;;;;;81.30;29.90;;;;;;;-147.86;100.00;44050.54;105140;1270;60351;-48
2024/03/16 08:30:00;;;;;;;71.40;28.60;;;;;;;-147.86;100.00;43683.98;105091;1268;76112;-50
2024/03/16 08:32:29;;;;;;;66.20;28.40;;;;;;;-147.86;100.00;43235.20;105150;1264;63099;-49
2024/03/16 08:34:57;;;;;;;69.10;28.90;;;;;;;-147.86;100.00;42751.63;105166;1264;73961;-46
2024/03/16 08:37:25;;;;;;;87.70;29.50;;;;;;;-147.86;100.00;42209.01;105116;1267;60543;-50
2024/03/16 08:39:53;;;;;;;68.60;27.30;;;;;;;-147.86;100.00;41596.01;105154;1264;60453;-49
2024/03/16 08:42:21;;;;;;;77.40;27.10;;;;;;;-147.86;100.00;40987.01;105170;1263;72613;-48
2024/03/16 08:44:49;;;;;;;70.30;25.80;;;;;;;-147.86;100.00;40332.73;105184;1264;66775;-48
2024/03/16 08:47:17;;;;;;;76.30;27.40;;;;;;;-147.86;100.00;39698.89;105158;1269;74939;-49
2024/03/16 08:49:45;;;;;;;74.80;25.90;;;;;;;-147.86;100.00;38921.61;105173;1264;60459;-51
2024/03/16 08:52:13;;;;;;;59.80;25.50;;;;;;;-147.86;100.00;38086.59;105121;1264;62289;-51
2024/03/16 08:54:41;;;;;;;87.20;27.40;;;;;;;-147.86;100.00;37167.71;105148;1264;73101;-46
2024/03/16 08:57:09;;;;;;;83.30;27.40;;;;;;;-147.86;100.00;36274.82;105116;1269;67592;-48
2024/03/16 08:59:38;;;;;;;64.60;25.30;;;;;;;-147.86;100.00;35424.36;105119;1263;75095;-47
2024/03/16 09:02:05;;;;;;;72.20;26.90;;;;;;;-147.86;100.00;34543.62;105128;1270;61204;-48
2024/03/16 09:04:33;;;;;;;83.50;26.70;;;;;;;-147.86;100.00;33399.39;105129;1269;62263;-46
2024/03/16 09:07:01;;;;;;;64.50;23.80;;;;;;;-147.86;100.00;32078.24;105136;1264;73811;-47
2024/03/16 09:09:29;;;;;;;70.00;25.60;;;;;;;-147.86;100.00;30502.67;105114;1264;67360;-46
2024/03/16 09:11:57;;;;;;;74.60;26.10;;;;;;;-147.86;100.00;28717.84;105127;1269;72756;-48
2024/03/16 09:14:24;;;;;;;67.90;24.30;;;;;;;-147.86;100.00;26782.93;105149;1269;62086;-47
2024/03/16 09:16:52;;;;;;;69.90;24.50;;;;;;;-147.86;100.00;24773.74;105225;1264;62309;-47
2024/03/16 09:19:20;;;;;;;88.10;25.60;;;;;;;-147.86;100.00;22690.43;105148;1269;76152;-47
2024/03/16 09:21:49;;;;;;;91.80;28.30;;;;;;;-147.86;100.00;20752.93;105091;1269;63269;-47
2024/03/16 09:24:17;;;;;;;73.70;26.20;;;;;;;-147.86;100.00;19494.69;105262;1266;74790;-47
2024/03/16 09:26:45;;;;;;;67.70;24.20;;;;;;;-147.86;100.00;18799.85;105248;1261;61649;-49
2024/03/16 09:29:13;;;;;;;74.20;26.10;;;;;;;-147.86;100.00;18465.90;105226;1266;61260;-47
2024/03/16 09:31:40;;;;;;;82.80;25.80;;;;;;;-147.86;100.00;18464.41;105215;1266;75880;-48
2024/03/16 09:34:08;;;;;;;73.40;26.50;;;;;;;-147.86;100.00;18724.10;105182;1266;66714;-46
2024/03/16 09:36:37;;;;;;;74.50;24.30;;;;;;;-147.86;100.00;19216.51;105224;1265;71367;-50
2024/03/16 09:39:10;;;;;;;71.90;24.90;;;;;;;-147.86;100.00;19596.85;105211;1265;63917;-48
2024/03/16 09:41:38;;;;;;;68.80;26.30;;;;;;;-147.86;100.00;19529.37;105213;1265;62648;-46
2024/03/16 09:44:11;;;;;;;76.10;25.80;;;;;;;-147.86;100.00;20508.22;105304;1270;72658;-46
2024/03/16 09:46:43;;;;;;;86.50;25.60;;;;;;;-147.86;100.00;20767.14;105252;1266;66363;-46
2024/03/16 09:49:12;;;;;;;69.50;26.00;;;;;;;-147.86;100.00;21617.96;105260;1261;74942;-47
2024/03/16 09:51:39;;;;;;;81.10;28.00;;;;;;;-147.86;100.00;22690.79;105241;1266;60495;-47
2024/03/16 09:54:10;;;;;;;70.30;25.90;;;;;;;-147.86;100.00;23454.29;105169;1260;61107;-46
2024/03/16 09:56:38;;;;;;;73.60;26.30;;;;;;;-147.86;100.00;23760.05;105222;1260;76001;-48
2024/03/16 09:59:10;;;;;;;79.10;28.20;;;;;;;-147.86;100.00;24682.95;105289;1266;66348;-48
2024/03/16 10:01:56;;;;;;;72.60;30.00;;;;;;;-147.86;100.00;22476.42;105269;1261;75075;-49
2024/03/16 10:04:24;;;;;;;80.30;29.00;;;;;;;-147.86;100.00;25026.97;105197;1266;63921;-47
2024/03/16 10:06:51;;;;;;;77.30;27.50;;;;;;;-147.86;100.00;25266.16;105217;1266;61096;-50
2024/03/16 10:09:23;;;;;;;67.50;26.90;;;;;;;-147.86;100.00;25067.29;105237;1266;76016;-47
2024/03/16 10:11:50;;;;;;;72.00;27.00;;;;;;;-147.86;100.00;24465.02;105233;1266;66639;-46
2024/03/16 10:14:18;;;;;;;74.20;27.50;;;;;;;-147.86;100.00;25171.01;105206;1267;72666;-48
2024/03/16 10:16:46;;;;;;;70.80;26.50;;;;;;;-147.86;100.00;25131.90;105258;1260;60449;-47
2024/03/16 10:19:14;;;;;;;71.50;26.00;;;;;;;-147.86;100.00;26396.29;105417;1262;60911;-47
2024/03/16 10:21:42;;;;;;;77.40;25.90;;;;;;;-147.86;100.00;28719.64;105422;1263;75923;-49
2024/03/16 10:24:10;;;;;;;85.20;26.10;;;;;;;-147.86;100.00;29478.34;105558;1260;66234;-46
2024/03/16 10:26:38;;;;;;;71.70;25.70;;;;;;;-147.86;100.00;29770.56;105559;1265;74692;-48
2024/03/16 10:29:09;;;;;;;74.50;25.70;;;;;;;-147.86;100.00;29915.70;105637;1263;61118;-49
2024/03/16 10:31:39;;;;;;;72.20;26.50;;;;;;;-147.86;100.00;29443.31;105641;1261;60509;-49
2024/03/16 10:34:07;;;;;;;73.60;25.90;;;;;;;-147.86;100.00;29544.65;105561;1261;75917;-48
2024/03/16 10:36:35;;;;;;;69.20;25.50;;;;;;;-147.86;100.00;29510.26;105510;1258;67829;-46
2024/03/16 10:39:03;;;;;;;75.90;27.00;;;;;;;-147.86;100.00;29221.47;105683;1260;74969;-48
2024/03/16 10:41:31;;;;;;;75.60;29.00;;;;;;;-147.86;100.00;28822.76;105656;1254;62172;-47
2024/03/16 10:43:58;;;;;;;83.70;27.50;;;;;;;-147.86;100.00;28621.07;105682;1255;61084;-46
2024/03/16 10:46:26;;;;;;;76.00;28.70;;;;;;;-147.86;100.00;28253.56;105671;1259;76152;-48
2024/03/16 10:48:54;;;;;;;78.20;26.20;;;;;;;-147.86;100.00;27739.09;105872;1257;66621;-46
2024/03/16 10:51:23;;;;;;;71.00;24.70;;;;;;;-147.86;100.00;27208.30;105844;1258;73616;-48
2024/03/16 10:53:50;;;;;;;82.50;25.00;;;;;;;-147.86;100.00;27331.59;105827;1257;62778;-50
2024/03/16 10:56:18;;;;;;;61.90;24.10;;;;;;;-147.86;100.00;25479.92;105660;1260;61523;-47
2024/03/16 10:58:46;;;;;;;81.20;25.20;;;;;;;-147.86;100.00;25365.75;105696;1257;73608;-48
2024/03/16 11:01:18;;;;;;;63.30;25.40;;;;;;;-147.86;100.00;25198.09;105680;1254;64519;-48
2024/03/16 11:03:46;;;;;;;66.90;23.40;;;;;;;-147.86;100.00;24214.69;105741;1259;72640;-46
2024/03/16 11:06:21;;;;;;;59.30;25.30;;;;;;;-147.86;100.00;24607.67;105792;1266;61771;-47
2024/03/16 11:08:50;;;;;;;63.50;23.80;;;;;;;-147.86;100.00;23688.49;105837;1257;61041;-46
2024/03/16 11:11:24;;;;;;;54.70;24.00;;;;;;;-147.86;100.00;24521.25;105841;1257;74080;-46
2024/03/16 11:14:09;;;;;;;69.70;24.50;;;;;;;-147.86;100.00;23953.78;105938;1257;66380;-47
2024/03/16 11:16:44;;;;;;;71.90;24.90;;;;;;;-147.86;100.00;22610.54;105876;1258;74999;-48
2024/03/16 11:19:21;;;;;;;55.90;23.80;;;;;;;-147.86;100.00;23758.20;105839;1255;63933;-48
2024/03/16 11:21:52;;;;;;;71.80;24.20;;;;;;;-147.86;100.00;23263.25;105856;1252;62245;-48
2024/03/16 11:24:20;;;;;;;68.80;24.70;;;;;;;-147.86;100.00;24516.29;105905;1258;76008;-46
2024/03/16 11:26:49;;;;;;;70.80;23.30;;;;;;;-147.86;100.00;25217.75;105894;1258;64658;-47
2024/03/16 11:29:22;;;;;;;59.40;25.00;;;;;;;-147.86;100.00;25463.27;105871;1254;74853;-47
2024/03/16 11:31:56;;;;;;;66.10;25.30;;;;;;;-147.86;100.00;25053.77;105860;1258;61271;-46
2024/03/16 11:34:25;;;;;;;77.90;24.70;;;;;;;-147.86;100.00;24814.62;105916;1254;62459;-46
2024/03/16 11:36:53;;;;;;;73.00;23.70;;;;;;;-147.86;100.00;25466.39;105953;1255;73714;-47
2024/03/16 11:39:25;;;;;;;68.00;24.50;;;;;;;-147.86;100.00;25529.87;105904;1258;66271;-46
2024/03/16 11:41:58;;;;;;;66.10;25.10;;;;;;;-147.86;100.00;24912.62;105871;1254;74175;-45
2024/03/16 11:44:26;;;;;;;74.60;26.50;;;;;;;-147.86;100.00;24669.56;105871;1257;62184;-47
2024/03/16 11:46:53;;;;;;;64.80;24.70;;;;;;;-147.86;100.00;25733.05;105838;1254;62214;-47
2024/03/16 11:49:23;;;;;;;68.00;25.20;;;;;;;-147.86;100.00;26349.72;105828;1252;76832;-46
2024/03/16 11:51:58;;;;;;;77.60;24.40;;;;;;;-147.86;100.00;26130.32;105871;1254;66128;-48
2024/03/16 11:54:26;;;;;;;65.20;25.80;;;;;;;-147.86;100.00;25733.35;105822;1255;74876;-46
2024/03/16 11:56:53;;;;;;;68.80;25.60;;;;;;;-147.86;100.00;27078.96;105854;1255;61308;-45
2024/03/16 11:59:21;;;;;;;74.10;25.20;;;;;;;-147.86;100.00;27717.33;105665;1259;61267;-47
2024/03/16 12:01:53;;;;;;;66.00;26.80;;;;;;;-147.86;100.00;27986.09;105703;1259;77240;-47
2024/03/16 12:04:22;;;;;;;76.20;26.30;;;;;;;-147.86;100.00;27789.65;105886;1254;64449;-47
2024/03/16 12:06:52;;;;;;;78.20;26.20;;;;;;;-147.86;100.00;28078.89;105880;1266;74039;-48
2024/03/16 12:09:31;;;;;;;63.80;26.10;;;;;;;-147.86;100.00;27940.07;105927;1257;61378;-48
2024/03/16 12:12:03;;;;;;;77.20;26.40;;;;;;;-147.86;100.00;26255.04;105871;1254;62374;-49
2024/03/16 12:14:31;;;;;;;75.40;27.80;;;;;;;-147.86;100.00;27699.02;105713;1254;75166;-46
2024/03/16 12:17:09;;;;;;;62.00;25.60;;;;;;;-147.86;100.00;26297.56;105860;1257;67614;-47
2024/03/16 12:19:38;;;;;;;67.30;25.80;;;;;;;-147.86;100.00;26828.13;105772;1267;75244;-46
2024/03/16 12:22:13;;;;;;;71.20;26.90;;;;;;;-147.86;100.00;26345.40;105849;1257;61291;-47
2024/03/16 12:24:42;;;;;;;73.30;30.10;;;;;;;-147.86;100.00;24320.38;105740;1258;61298;-46
2024/03/16 12:27:09;;;;;;;69.60;27.50;;;;;;;-147.86;100.00;24298.20;105873;1254;76788;-46
2024/03/16 12:29:38;;;;;;;89.10;30.60;;;;;;;-147.86;100.00;23333.80;105837;1257;64202;-46
2024/03/16 12:32:06;;;;;;;80.40;25.90;;;;;;;-147.86;100.00;21411.26;105849;1254;72378;-46
2024/03/16 12:34:33;;;;;;;84.20;29.90;;;;;;;-147.86;100.00;19768.72;105848;1260;61362;-46
2024/03/16 12:37:01;;;;;;;75.40;29.20;;;;;;;-147.86;100.00;18398.43;105823;1257;61391;-46
2024/03/16 12:39:32;;;;;;;66.50;27.60;;;;;;;-147.86;100.00;16626.44;105898;1258;76943;-47
2024/03/16 12:42:00;;;;;;;63.80;26.40;;;;;;;-147.86;100.00;14765.23;105847;1257;66410;-46
2024/03/16 12:44:28;;;;;;;70.60;26.40;;;;;;;-147.86;100.00;14144.75;105879;1257;73039;-46
2024/03/16 12:46:57;;;;;;;63.10;26.60;;;;;;;-147.86;100.00;12985.42;105812;1254;62612;-46
2024/03/16 12:49:25;;;;;;;63.60;27.60;;;;;;;-147.86;100.00;11342.17;105896;1256;61318;-47
2024/03/16 12:51:53;;;;;;;59.20;27.80;;;;;;;-147.86;100.00;9944.12;105920;1262;76718;-46
2024/03/16 12:54:20;;;;;;;60.80;28.30;;;;;;;-147.86;100.00;8367.70;105820;1257;66605;-46
2024/03/16 12:56:48;;;;;;;62.20;28.30;;;;;;;-147.86;100.00;6573.54;105819;1254;74930;-46
2024/03/16 12:59:18;;;;;;;66.40;27.90;;;;;;;-147.86;100.00;4841.09;105853;1254;61245;-47
2024/03/16 13:01:47;;;;;;;64.50;30.00;;;;;;;-147.86;100.00;2477.73;105848;1254;61497;-48
2024/03/16 13:04:14;;;;;;;52.90;26.50;;;;;;;-147.86;100.00;623.56;105867;1257;77003;-49